createdAt,value
2023-04-02T00:01:18.262Z,101417.03
2023-04-02T00:04:10.076Z,101423.03
2023-04-02T00:06:44.702Z,101426.56
2023-04-02T00:09:26.158Z,101426.28
2023-04-02T00:11:57.361Z,101428.22
2023-04-02T00:14:27.179Z,101426.47
2023-04-02T00:16:56.790Z,101446.94
2023-04-02T00:19:32.265Z,101449.69
2023-04-02T00:22:01.212Z,101454.72
2023-04-02T00:24:29.502Z,101465.91
2023-04-02T00:26:57.953Z,101470.06
2023-04-02T00:29:25.865Z,101466.75
2023-04-02T00:31:54.912Z,101472.59
2023-04-02T00:34:25.140Z,101469.19
2023-04-02T00:36:55.257Z,101464.94
2023-04-02T00:39:26.046Z,101472.63
2023-04-02T00:42:05.122Z,101480.38
2023-04-02T00:44:34.184Z,101481.94
2023-04-02T00:47:05.693Z,101482.97
2023-04-02T00:49:37.492Z,101490.63
2023-04-02T00:52:08.517Z,101495.84
2023-04-02T00:54:40.579Z,101494.28
2023-04-02T00:57:16.231Z,101496.84
2023-04-02T00:59:50.108Z,101491.72
2023-04-02T01:02:26.596Z,101498.50
2023-04-02T01:04:55.745Z,101499.53
2023-04-02T01:07:44.948Z,101504.59
2023-04-02T01:10:25.410Z,101501.28
2023-04-02T01:13:07.542Z,101510.06
2023-04-02T01:17:01.030Z,101509.94
2023-04-02T01:19:54.726Z,101519.31
2023-04-02T01:22:24.316Z,101521.94
2023-04-02T01:24:58.115Z,101527.28
2023-04-02T01:27:29.379Z,101528.88
2023-04-02T01:29:59.493Z,101533.19
2023-04-02T01:32:29.868Z,101532.41
2023-04-02T01:34:58.438Z,101545.03
2023-04-02T01:37:36.765Z,101545.28
2023-04-02T01:40:14.486Z,101545.47
2023-04-02T01:42:49.177Z,101555.69
2023-04-02T01:45:21.836Z,101551.47
2023-04-02T01:47:51.356Z,101551.53
2023-04-02T01:50:31.596Z,101563.38
2023-04-02T01:53:01.780Z,101558.22
2023-04-02T01:55:35.925Z,101557.47
2023-04-02T01:58:05.704Z,101570.28
2023-04-02T02:00:37.482Z,101570.38
2023-04-02T02:03:06.596Z,101572.91
2023-04-02T02:05:34.959Z,101587.38
2023-04-02T02:08:03.511Z,101579.56
2023-04-02T02:10:38.355Z,101574.66
2023-04-02T02:13:09.162Z,101583.13
2023-04-02T02:15:41.882Z,101595.22
2023-04-02T02:18:11.868Z,101596.00
2023-04-02T02:20:44.021Z,101599.53
2023-04-02T02:23:13.790Z,101604.56
2023-04-02T02:25:41.968Z,101612.31
2023-04-02T02:28:11.898Z,101614.75
2023-04-02T02:30:45.720Z,101621.84
2023-04-02T02:33:18.026Z,101619.38
2023-04-02T02:35:51.926Z,101621.75
2023-04-02T02:38:30.476Z,101623.56
2023-04-02T02:41:07.560Z,101628.44
2023-04-02T02:43:37.017Z,101633.72
2023-04-02T02:46:07.310Z,101642.28
2023-04-02T02:48:38.287Z,101643.84
2023-04-02T02:51:09.798Z,101652.66
2023-04-02T02:53:47.453Z,101653.38
2023-04-02T02:56:15.558Z,101658.66
2023-04-02T02:58:45.054Z,101664.66
2023-04-02T03:01:24.886Z,101664.63
2023-04-02T03:03:56.087Z,101671.34
2023-04-02T03:06:26.027Z,101667.28
2023-04-02T03:09:05.056Z,101685.25
2023-04-02T03:11:38.618Z,101678.31
2023-04-02T03:14:17.159Z,101689.56
2023-04-02T03:16:48.946Z,101683.63
2023-04-02T03:19:24.868Z,101686.06
2023-04-02T03:21:56.488Z,101700.69
2023-04-02T03:24:32.478Z,101705.69
2023-04-02T03:27:04.728Z,101705.81
2023-04-02T03:29:34.190Z,101713.56
2023-04-02T03:32:06.676Z,101715.31
2023-04-02T03:34:37.323Z,101725.53
2023-04-02T03:37:11.418Z,101724.78
2023-04-02T03:39:43.516Z,101734.06
2023-04-02T03:42:16.074Z,101735.91
2023-04-02T03:44:47.338Z,101740.19
2023-04-02T03:47:20.613Z,101735.09
2023-04-02T03:49:51.396Z,101740.94
2023-04-02T03:52:24.247Z,101750.63
2023-04-02T03:54:53.747Z,101745.31
2023-04-02T03:57:26.759Z,101753.94
2023-04-02T04:00:00.468Z,101755.72
2023-04-02T04:02:40.006Z,101759.97
2023-04-02T04:05:21.144Z,101767.50
2023-04-02T04:07:52.112Z,101765.72
2023-04-02T04:10:23.892Z,101772.81
2023-04-02T04:12:53.311Z,101773.78
2023-04-02T04:15:27.121Z,101777.81
2023-04-02T04:18:03.273Z,101786.59
2023-04-02T04:20:37.879Z,101784.00
2023-04-02T04:23:25.832Z,101789.09
2023-04-02T04:25:59.197Z,101789.91
2023-04-02T04:28:31.869Z,101796.84
2023-04-02T04:31:06.864Z,101798.50
2023-04-02T04:33:40.602Z,101805.31
2023-04-02T04:36:21.633Z,101807.22
2023-04-02T04:38:55.327Z,101812.38
2023-04-02T04:41:26.778Z,101816.47
2023-04-02T04:43:59.983Z,101819.81
2023-04-02T04:46:29.916Z,101813.91
2023-04-02T04:49:03.754Z,101826.84
2023-04-02T04:51:38.000Z,101834.50
2023-04-02T04:54:06.249Z,101841.44
2023-04-02T04:56:35.893Z,101842.31
2023-04-02T04:59:16.936Z,101849.13
2023-04-02T05:01:48.958Z,101851.72
2023-04-02T05:04:22.794Z,101861.81
2023-04-02T05:06:54.216Z,101869.78
2023-04-02T05:09:26.355Z,101870.81
2023-04-02T05:12:00.960Z,101876.66
2023-04-02T05:14:34.360Z,101874.16
2023-04-02T05:17:05.909Z,101886.22
2023-04-02T05:19:38.472Z,101893.03
2023-04-02T05:22:15.846Z,101889.50
2023-04-02T05:25:02.379Z,101902.13
2023-04-02T05:27:37.675Z,101912.41
2023-04-02T05:30:14.502Z,101920.41
2023-04-02T05:32:45.439Z,101923.59
2023-04-02T05:35:20.562Z,101919.50
2023-04-02T05:37:49.272Z,101920.47
2023-04-02T05:40:23.008Z,101932.50
2023-04-02T05:42:52.917Z,101942.88
2023-04-02T05:45:27.062Z,101928.44
2023-04-02T05:48:01.936Z,101945.00
2023-04-02T05:50:43.080Z,101948.44
2023-04-02T05:53:20.991Z,101955.84
2023-04-02T05:55:54.651Z,101950.94
2023-04-02T05:58:36.238Z,101952.94
2023-04-02T06:01:22.257Z,101964.41
2023-04-02T06:03:57.260Z,101974.13
2023-04-02T06:06:42.608Z,101973.31
2023-04-02T06:09:15.337Z,101983.38
2023-04-02T06:11:46.951Z,101987.22
2023-04-02T06:14:19.476Z,101990.56
2023-04-02T06:16:49.236Z,101996.59
2023-04-02T06:19:21.701Z,101988.06
2023-04-02T06:21:52.418Z,102000.31
2023-04-02T06:24:25.443Z,101997.13
2023-04-02T06:26:57.686Z,102006.44
2023-04-02T06:29:29.952Z,102001.34
2023-04-02T06:32:02.407Z,102011.28
2023-04-02T06:34:32.053Z,102010.63
2023-04-02T06:37:18.474Z,102009.50
2023-04-02T06:39:47.864Z,102017.47
2023-04-02T06:42:22.919Z,102021.44
2023-04-02T06:45:07.211Z,102026.94
2023-04-02T06:48:04.217Z,102020.56
2023-04-02T06:50:48.617Z,102036.47
2023-04-02T06:53:23.765Z,102040.03
2023-04-02T06:55:55.683Z,102045.41
2023-04-02T06:58:27.909Z,102051.28
2023-04-02T07:00:56.332Z,102048.34
2023-04-02T07:03:41.084Z,102056.91
2023-04-02T07:06:28.030Z,102059.19
2023-04-02T07:09:01.141Z,102069.59
2023-04-02T07:11:29.148Z,102061.81
2023-04-02T07:14:01.425Z,102073.13
2023-04-02T07:16:33.060Z,102087.06
2023-04-02T07:19:04.317Z,102087.72
2023-04-02T07:21:35.248Z,102076.44
2023-04-02T07:24:04.822Z,102089.47
2023-04-02T07:26:34.529Z,102089.38
2023-04-02T07:29:02.463Z,102095.22
2023-04-02T07:31:30.988Z,102090.59
2023-04-02T07:34:00.695Z,102094.41
2023-04-02T07:36:30.178Z,102100.75
2023-04-02T07:38:58.109Z,102112.72
2023-04-02T07:41:27.731Z,102109.75
2023-04-02T07:43:55.645Z,102110.53
2023-04-02T07:46:23.629Z,102111.69
2023-04-02T07:48:51.787Z,102120.41
2023-04-02T07:51:21.170Z,102125.72
2023-04-02T07:53:51.171Z,102121.47
2023-04-02T07:56:21.978Z,102133.66
2023-04-02T07:58:51.499Z,102140.75
2023-04-02T08:01:21.300Z,102137.31
2023-04-02T08:03:50.034Z,102145.28
2023-04-02T08:06:19.432Z,102151.00
2023-04-02T08:08:47.366Z,102147.09
2023-04-02T08:11:15.316Z,102142.88
2023-04-02T08:13:43.539Z,102157.03
2023-04-02T08:16:12.829Z,102151.84
2023-04-02T08:18:40.806Z,102170.75
2023-04-02T08:21:10.501Z,102172.66
2023-04-02T08:23:39.428Z,102181.88
2023-04-02T08:26:08.378Z,102180.78
2023-04-02T08:28:36.575Z,102179.06
2023-04-02T08:31:05.467Z,102178.91
2023-04-02T08:33:38.045Z,102192.00
2023-04-02T08:36:07.760Z,102195.28
2023-04-02T08:38:35.766Z,102193.78
2023-04-02T08:41:04.128Z,102197.03
2023-04-02T08:43:47.797Z,102210.66
2023-04-02T08:46:20.387Z,102214.38
2023-04-02T08:48:52.940Z,102212.66
2023-04-02T08:51:24.640Z,102206.53
2023-04-02T08:53:54.525Z,102213.75
2023-04-02T08:56:28.813Z,102218.25
2023-04-02T08:58:59.260Z,102217.50
2023-04-02T09:01:37.324Z,102221.34
2023-04-02T09:04:15.387Z,102235.03
2023-04-02T09:06:44.016Z,102248.91
2023-04-02T09:09:12.797Z,102244.09
2023-04-02T09:11:47.564Z,102247.16
2023-04-02T09:14:18.882Z,102248.63
2023-04-02T09:16:49.693Z,102240.53
2023-04-02T09:19:21.875Z,102255.88
2023-04-02T09:22:00.000Z,102262.81
2023-04-02T09:24:28.046Z,102258.50
2023-04-02T09:26:55.974Z,102247.84
2023-04-02T09:29:44.631Z,102261.91
2023-04-02T09:32:47.360Z,102266.91
2023-04-02T09:35:25.335Z,102264.84
2023-04-02T09:38:16.538Z,102268.47
2023-04-02T09:40:48.670Z,102272.16
2023-04-02T09:43:21.114Z,102282.59
2023-04-02T09:46:00.144Z,102287.41
2023-04-02T09:48:32.030Z,102291.78
2023-04-02T09:51:28.652Z,102294.69
2023-04-02T09:54:08.795Z,102294.91
2023-04-02T09:56:38.996Z,102298.72
2023-04-02T09:59:16.359Z,102296.88
2023-04-02T10:01:47.815Z,102299.41
2023-04-02T10:04:37.817Z,102294.66
2023-04-02T10:07:08.010Z,102296.19
2023-04-02T10:09:38.546Z,102301.91
2023-04-02T10:12:08.940Z,102309.09
2023-04-02T10:14:39.780Z,102306.72
2023-04-02T10:17:12.415Z,102309.25
2023-04-02T10:19:42.826Z,102312.38
2023-04-02T10:22:15.244Z,102326.97
2023-04-02T10:24:43.918Z,102326.91
2023-04-02T10:27:22.664Z,102328.44
2023-04-02T10:30:06.611Z,102336.75
2023-04-02T10:32:39.251Z,102328.59
2023-04-02T10:35:16.352Z,102318.97
2023-04-02T10:38:11.228Z,102336.19
2023-04-02T10:40:41.498Z,102337.63
2023-04-02T10:43:36.350Z,102344.09
2023-04-02T10:46:09.116Z,102344.81
2023-04-02T10:48:43.689Z,102348.19
2023-04-02T10:51:18.482Z,102336.91
2023-04-02T10:53:54.807Z,102343.94
2023-04-02T10:56:24.042Z,102344.97
2023-04-02T10:58:57.526Z,102356.75
2023-04-02T11:01:28.733Z,102362.34
2023-04-02T11:04:00.253Z,102359.44
2023-04-02T11:06:32.602Z,102348.22
2023-04-02T11:09:06.596Z,102360.31
2023-04-02T11:11:37.534Z,102370.69
2023-04-02T11:14:13.448Z,102379.94
2023-04-02T11:16:44.591Z,102387.09
2023-04-02T11:19:30.609Z,102383.09
2023-04-02T11:22:02.472Z,102383.66
2023-04-02T11:24:38.402Z,102392.06
2023-04-02T11:27:23.864Z,102398.94
2023-04-02T11:29:54.530Z,102374.44
2023-04-02T11:32:42.520Z,102394.47
2023-04-02T11:35:27.674Z,102407.44
2023-04-02T11:37:56.937Z,102408.94
2023-04-02T11:40:48.252Z,102422.00
2023-04-02T11:43:48.549Z,102429.56
2023-04-02T11:46:46.800Z,102437.50
2023-04-02T11:49:42.160Z,102435.38
2023-04-02T11:52:22.573Z,102435.06
2023-04-02T11:55:01.830Z,102435.94
2023-04-02T11:57:42.040Z,102441.13
2023-04-02T12:00:22.778Z,102438.81
2023-04-02T12:03:04.495Z,102445.94
2023-04-02T12:05:36.787Z,102442.69
2023-04-02T12:08:18.963Z,102452.72
2023-04-02T12:10:58.137Z,102453.50
2023-04-02T12:13:50.881Z,102463.28
2023-04-02T12:16:19.019Z,102470.09
2023-04-02T12:18:48.446Z,102457.59
2023-04-02T12:21:17.730Z,102476.81
2023-04-02T12:23:47.178Z,102493.00
2023-04-02T12:26:38.312Z,102500.09
2023-04-02T12:29:17.935Z,102500.66
2023-04-02T12:31:46.449Z,102509.56
2023-04-02T12:34:16.625Z,102495.34
2023-04-02T12:36:54.008Z,102491.97
2023-04-02T12:39:22.158Z,102492.16
2023-04-02T12:41:50.064Z,102500.19
2023-04-02T12:44:21.772Z,102510.78
2023-04-02T12:46:50.644Z,102506.72
2023-04-02T12:49:27.074Z,102512.13
2023-04-02T12:51:56.011Z,102510.56
2023-04-02T12:54:24.137Z,102522.31
2023-04-02T12:56:54.096Z,102524.34
2023-04-02T12:59:34.746Z,102533.44
2023-04-02T13:02:05.659Z,102537.75
2023-04-02T13:04:33.641Z,102527.31
2023-04-02T13:07:02.143Z,102516.25
2023-04-02T13:09:35.080Z,102521.16
2023-04-02T13:12:03.043Z,102531.69
2023-04-02T13:14:32.536Z,102526.72
2023-04-02T13:17:00.430Z,102512.34
2023-04-02T13:19:30.825Z,102548.38
2023-04-02T13:22:00.203Z,102560.81
2023-04-02T13:24:29.315Z,102550.09
2023-04-02T13:26:58.547Z,102541.69
2023-04-02T13:29:28.386Z,102538.50
2023-04-02T13:32:00.544Z,102531.44
2023-04-02T13:34:28.737Z,102527.81
2023-04-02T13:36:57.452Z,102526.09
2023-04-02T13:39:25.450Z,102550.22
2023-04-02T13:41:56.896Z,102552.66
2023-04-02T13:44:26.190Z,102545.44
2023-04-02T13:46:54.987Z,102526.25
2023-04-02T13:49:24.611Z,102543.03
2023-04-02T13:51:54.258Z,102539.78
2023-04-02T13:54:26.118Z,102545.09
2023-04-02T13:56:54.209Z,102550.75
2023-04-02T13:59:23.289Z,102576.16
2023-04-02T14:01:53.003Z,102563.22
2023-04-02T14:04:26.081Z,102591.53
2023-04-02T14:07:17.592Z,102589.69
2023-04-02T14:09:56.456Z,102565.34
2023-04-02T14:12:34.628Z,102575.19
2023-04-02T14:15:16.877Z,102569.81
2023-04-02T14:17:55.143Z,102600.13
2023-04-02T14:20:33.421Z,102604.78
2023-04-02T14:23:10.349Z,102600.78
2023-04-02T14:25:44.211Z,102579.88
2023-04-02T14:28:20.578Z,102587.50
2023-04-02T14:30:55.652Z,102574.13
2023-04-02T14:33:30.477Z,102596.59
2023-04-02T14:36:11.418Z,102600.53
2023-04-02T14:38:43.401Z,102608.44
2023-04-02T14:41:15.191Z,102621.41
2023-04-02T14:43:46.915Z,102585.81
2023-04-02T14:46:14.981Z,102595.22
2023-04-02T14:48:47.595Z,102588.66
2023-04-02T14:51:23.403Z,102594.81
2023-04-02T14:53:59.265Z,102612.28
2023-04-02T14:56:27.732Z,102627.44
2023-04-02T14:59:03.606Z,102624.72
2023-04-02T15:01:36.389Z,102613.13
2023-04-02T15:04:08.321Z,102615.72
2023-04-02T15:06:39.694Z,102637.53
2023-04-02T15:09:13.273Z,102643.78
2023-04-02T15:11:49.965Z,102640.09
2023-04-02T15:14:21.349Z,102623.19
2023-04-02T15:16:49.324Z,102627.44
2023-04-02T15:19:18.911Z,102632.28
2023-04-02T15:22:16.944Z,102623.22
2023-04-02T15:24:53.849Z,102642.41
2023-04-02T15:27:44.170Z,102654.84
2023-04-02T15:30:15.568Z,102650.22
2023-04-02T15:32:44.387Z,102638.00
2023-04-02T15:35:32.715Z,102638.19
2023-04-02T15:38:06.709Z,102639.38
2023-04-02T15:40:52.813Z,102669.78
2023-04-02T15:43:24.488Z,102675.13
2023-04-02T15:45:59.251Z,102672.38
2023-04-02T15:49:06.670Z,102682.53
2023-04-02T15:51:42.687Z,102690.66
2023-04-02T15:54:21.750Z,102696.25
2023-04-02T15:56:53.823Z,102699.34
2023-04-02T15:59:50.984Z,102697.88
2023-04-02T16:02:34.122Z,102698.09
2023-04-02T16:05:04.899Z,102704.88
2023-04-02T16:08:09.137Z,102699.50
2023-04-02T16:10:43.042Z,102701.09
2023-04-02T16:13:32.414Z,102700.44
2023-04-02T16:16:05.788Z,102707.94
2023-04-02T16:18:46.392Z,102701.75
2023-04-02T16:21:17.543Z,102702.91
2023-04-02T16:23:45.756Z,102714.81
2023-04-02T16:26:35.054Z,102703.91
2023-04-02T16:29:13.499Z,102708.94
2023-04-02T16:31:49.573Z,102711.53
2023-04-02T16:34:24.674Z,102717.31
2023-04-02T16:36:58.523Z,102715.25
2023-04-02T16:39:35.909Z,102716.69
2023-04-02T16:42:11.518Z,102711.72
2023-04-02T16:44:47.583Z,102724.81
2023-04-02T16:47:31.045Z,102729.13
2023-04-02T16:50:05.686Z,102733.47
2023-04-02T16:52:41.822Z,102730.41
2023-04-02T16:55:27.184Z,102742.47
2023-04-02T16:58:05.632Z,102759.16
2023-04-02T17:00:39.833Z,102745.34
2023-04-02T17:03:20.674Z,102746.81
2023-04-02T17:05:54.438Z,102765.00
2023-04-02T17:08:24.434Z,102772.06
2023-04-02T17:10:53.506Z,102771.91
2023-04-02T17:13:29.886Z,102779.63
2023-04-02T17:16:06.069Z,102786.88
2023-04-02T17:18:34.426Z,102792.63
2023-04-02T17:21:04.959Z,102795.97
2023-04-02T17:23:43.094Z,102802.69
2023-04-02T17:26:18.401Z,102806.44
2023-04-02T17:28:49.089Z,102817.06
2023-04-02T17:31:21.323Z,102822.06
2023-04-02T17:33:49.595Z,102828.19
2023-04-02T17:36:35.419Z,102841.94
2023-04-02T17:39:12.751Z,102842.66
2023-04-02T17:41:49.082Z,102841.31
2023-04-02T17:44:45.643Z,102845.94
2023-04-02T17:47:18.922Z,102844.63
2023-04-02T17:49:52.517Z,102849.44
2023-04-02T17:52:23.204Z,102849.28
2023-04-02T17:54:57.771Z,102849.53
2023-04-02T17:57:41.207Z,102851.38
2023-04-02T18:00:24.201Z,102856.34
2023-04-02T18:03:11.720Z,102851.38
2023-04-02T18:05:44.342Z,102853.47
2023-04-02T18:08:18.836Z,102859.91
2023-04-02T18:10:53.974Z,102867.69
2023-04-02T18:13:32.049Z,102861.25
2023-04-02T18:16:08.240Z,102869.13
2023-04-02T18:18:50.652Z,102875.53
2023-04-02T18:21:25.672Z,102876.13
2023-04-02T18:24:07.356Z,102877.56
2023-04-02T18:26:41.958Z,102876.72
2023-04-02T18:29:16.746Z,102881.88
2023-04-02T18:31:50.909Z,102887.53
2023-04-02T18:34:49.781Z,102890.66
2023-04-02T18:37:23.116Z,102889.97
2023-04-02T18:40:03.970Z,102901.44
2023-04-02T18:42:48.293Z,102904.81
2023-04-02T18:45:23.042Z,102898.56
2023-04-02T18:47:59.830Z,102906.25
2023-04-02T18:50:31.468Z,102911.91
2023-04-02T18:52:59.766Z,102910.88
2023-04-02T18:55:29.825Z,102915.47
2023-04-02T18:58:01.398Z,102916.25
2023-04-02T19:00:32.246Z,102922.94
2023-04-02T19:03:07.827Z,102923.66
2023-04-02T19:05:44.515Z,102927.19
2023-04-02T19:08:18.060Z,102928.47
2023-04-02T19:10:47.836Z,102925.97
2023-04-02T19:13:17.430Z,102924.41
2023-04-02T19:15:59.332Z,102923.63
2023-04-02T19:18:35.088Z,102922.06
2023-04-02T19:21:15.176Z,102925.88
2023-04-02T19:23:55.528Z,102929.50
2023-04-02T19:26:28.670Z,102927.06
2023-04-02T19:29:04.012Z,102921.84
2023-04-02T19:31:42.381Z,102909.63
2023-04-02T19:34:18.030Z,102920.38
2023-04-02T19:36:49.388Z,102920.16
2023-04-02T19:39:46.653Z,102918.00
2023-04-02T19:42:22.472Z,102918.41
2023-04-02T19:44:52.528Z,102917.63
2023-04-02T19:47:21.487Z,102911.19
2023-04-02T19:49:50.964Z,102912.06
2023-04-02T19:52:19.566Z,102917.56
2023-04-02T19:54:47.672Z,102930.66
2023-04-02T19:57:16.825Z,102930.25
2023-04-02T19:59:44.810Z,102931.22
2023-04-02T20:02:12.866Z,102937.91
2023-04-02T20:04:40.932Z,102939.09
2023-04-02T20:07:10.264Z,102941.09
2023-04-02T20:09:38.282Z,102942.47
2023-04-02T20:12:06.592Z,102933.41
2023-04-02T20:14:34.633Z,102936.13
2023-04-02T20:17:02.643Z,102938.22
2023-04-02T20:19:30.893Z,102939.91
2023-04-02T20:21:59.018Z,102936.91
2023-04-02T20:24:28.436Z,102937.63
2023-04-02T20:26:56.514Z,102937.47
2023-04-02T20:29:27.853Z,102932.91
2023-04-02T20:31:55.735Z,102938.69
2023-04-02T20:34:23.739Z,102935.69
2023-04-02T20:36:52.087Z,102943.06
2023-04-02T20:39:21.387Z,102947.50
2023-04-02T20:41:50.802Z,102954.63
2023-04-02T20:44:18.806Z,102950.88
2023-04-02T20:46:46.928Z,102951.34
2023-04-02T20:49:14.898Z,102944.88
2023-04-02T20:51:43.279Z,102948.97
2023-04-02T20:54:11.439Z,102950.66
2023-04-02T20:56:39.706Z,102943.22
2023-04-02T20:59:08.941Z,102945.84
2023-04-02T21:01:37.546Z,102949.22
2023-04-02T21:04:05.836Z,102950.66
2023-04-02T21:06:35.030Z,102952.41
2023-04-02T21:09:03.796Z,102955.59
2023-04-02T21:11:32.267Z,102955.84
2023-04-02T21:14:00.353Z,102964.69
2023-04-02T21:16:31.899Z,102955.34
2023-04-02T21:19:02.160Z,102956.13
2023-04-02T21:21:30.391Z,102958.41
2023-04-02T21:24:00.367Z,102960.97
2023-04-02T21:26:29.229Z,102967.34
2023-04-02T21:28:57.482Z,102968.38
2023-04-02T21:31:27.510Z,102963.66
2023-04-02T21:33:57.891Z,102971.97
2023-04-02T21:36:26.917Z,102964.44
2023-04-02T21:38:56.425Z,102971.69
2023-04-02T21:41:26.428Z,102970.03
2023-04-02T21:43:55.299Z,102973.22
2023-04-02T21:46:25.052Z,102973.06
2023-04-02T21:48:54.147Z,102967.41
2023-04-02T21:51:25.313Z,102966.19
2023-04-02T21:53:54.175Z,102968.50
2023-04-02T21:56:23.895Z,102968.88
2023-04-02T21:58:52.302Z,102968.16
2023-04-02T22:01:27.230Z,102969.09
2023-04-02T22:03:56.891Z,102964.53
2023-04-02T22:06:27.912Z,102959.19
2023-04-02T22:08:58.420Z,102963.50
2023-04-02T22:11:28.065Z,102959.72
2023-04-02T22:13:56.135Z,102957.97
2023-04-02T22:16:25.298Z,102957.72
2023-04-02T22:18:54.548Z,102951.66
2023-04-02T22:21:22.838Z,102948.56
2023-04-02T22:23:52.561Z,102947.84
2023-04-02T22:26:22.903Z,102947.50
2023-04-02T22:28:52.633Z,102947.53
2023-04-02T22:31:21.848Z,102956.38
2023-04-02T22:33:50.585Z,102954.31
2023-04-02T22:36:19.824Z,102954.41
2023-04-02T22:38:47.667Z,102959.53
2023-04-02T22:41:18.298Z,102952.75
2023-04-02T22:43:47.196Z,102957.53
2023-04-02T22:46:16.578Z,102959.97
2023-04-02T22:48:45.114Z,102957.47
2023-04-02T22:51:14.862Z,102965.44
2023-04-02T22:53:43.148Z,102963.91
2023-04-02T22:56:12.659Z,102973.59
2023-04-02T22:58:42.170Z,102971.13
2023-04-02T23:01:13.259Z,102972.16
2023-04-02T23:03:41.573Z,102972.66
2023-04-02T23:06:11.040Z,102975.81
2023-04-02T23:08:39.899Z,102979.78
2023-04-02T23:11:09.346Z,102978.53
2023-04-02T23:13:37.542Z,102977.75
2023-04-02T23:16:08.689Z,102977.75
2023-04-02T23:18:37.053Z,102983.28
2023-04-02T23:21:06.030Z,102973.50
2023-04-02T23:23:34.229Z,102980.41
2023-04-02T23:26:07.198Z,102983.91
2023-04-02T23:28:35.384Z,102987.00
2023-04-02T23:31:03.808Z,102986.47
2023-04-02T23:33:33.157Z,102988.84
2023-04-02T23:36:01.135Z,102995.19
2023-04-02T23:38:29.032Z,102990.88
2023-04-02T23:40:56.954Z,103003.41
2023-04-02T23:43:24.930Z,102992.81
2023-04-02T23:45:52.822Z,102997.94
2023-04-02T23:48:20.694Z,102999.97
2023-04-02T23:50:49.898Z,102998.31
2023-04-02T23:53:18.734Z,102996.19
2023-04-02T23:55:46.867Z,102998.38
2023-04-02T23:58:14.763Z,102990.56
